sensor_id;sensor_type;location;lat;lon;timestamp;pressure;altitude;pressure_sealevel;temperature
32827;BMP280;51059;42.058;27.986;2023-08-08T00:01:08;100747.31;;;21.28
32827;BMP280;51059;42.058;27.986;2023-08-08T00:03:34;100744.78;;;21.30
32827;BMP280;51059;42.058;27.986;2023-08-08T00:06:00;100750.69;;;21.33
32827;BMP280;51059;42.058;27.986;2023-08-08T00:08:26;100753.25;;;21.30
32827;BMP280;51059;42.058;27.986;2023-08-08T00:10:52;100751.53;;;21.28
32827;BMP280;51059;42.058;27.986;2023-08-08T00:13:19;100757.47;;;21.28
32827;BMP280;51059;42.058;27.986;2023-08-08T00:15:45;100761.69;;;21.25
32827;BMP280;51059;42.058;27.986;2023-08-08T00:18:11;100754.03;;;21.20
32827;BMP280;51059;42.058;27.986;2023-08-08T00:20:38;100759.09;;;21.15
32827;BMP280;51059;42.058;27.986;2023-08-08T00:23:03;100754.91;;;21.19
32827;BMP280;51059;42.058;27.986;2023-08-08T00:25:29;100770.06;;;21.06
32827;BMP280;51059;42.058;27.986;2023-08-08T00:27:55;100776.03;;;21.17
32827;BMP280;51059;42.058;27.986;2023-08-08T00:30:21;100772.66;;;21.22
32827;BMP280;51059;42.058;27.986;2023-08-08T00:32:47;100767.59;;;21.21
32827;BMP280;51059;42.058;27.986;2023-08-08T00:35:15;100772.63;;;21.18
32827;BMP280;51059;42.058;27.986;2023-08-08T00:37:41;100774.34;;;21.19
32827;BMP280;51059;42.058;27.986;2023-08-08T00:40:09;100764.16;;;21.15
32827;BMP280;51059;42.058;27.986;2023-08-08T00:42:36;100773.47;;;21.14
32827;BMP280;51059;42.058;27.986;2023-08-08T00:45:01;100772.59;;;21.11
32827;BMP280;51059;42.058;27.986;2023-08-08T00:47:32;100767.56;;;21.12
32827;BMP280;51059;42.058;27.986;2023-08-08T00:50:01;100765.00;;;21.17
32827;BMP280;51059;42.058;27.986;2023-08-08T00:52:28;100766.72;;;21.16
32827;BMP280;51059;42.058;27.986;2023-08-08T00:54:54;100764.16;;;21.09
32827;BMP280;51059;42.058;27.986;2023-08-08T00:57:20;100761.59;;;21.06
32827;BMP280;51059;42.058;27.986;2023-08-08T00:59:46;100768.38;;;21.11
32827;BMP280;51059;42.058;27.986;2023-08-08T01:02:12;100772.63;;;21.12
32827;BMP280;51059;42.058;27.986;2023-08-08T01:04:39;100769.22;;;21.10
32827;BMP280;51059;42.058;27.986;2023-08-08T01:09:54;100775.94;;;21.01
32827;BMP280;51059;42.058;27.986;2023-08-08T01:12:23;100779.31;;;20.99
32827;BMP280;51059;42.058;27.986;2023-08-08T01:14:50;100784.38;;;20.97
32827;BMP280;51059;42.058;27.986;2023-08-08T01:17:16;100787.78;;;20.98
32827;BMP280;51059;42.058;27.986;2023-08-08T01:19:42;100786.91;;;20.96
32827;BMP280;51059;42.058;27.986;2023-08-08T01:22:16;100777.53;;;20.90
32827;BMP280;51059;42.058;27.986;2023-08-08T01:24:48;100789.38;;;20.90
32827;BMP280;51059;42.058;27.986;2023-08-08T01:27:14;100788.50;;;20.85
32827;BMP280;51059;42.058;27.986;2023-08-08T01:29:42;100802.03;;;20.84
32827;BMP280;51059;42.058;27.986;2023-08-08T01:32:08;100797.78;;;20.83
32827;BMP280;51059;42.058;27.986;2023-08-08T01:34:36;100798.66;;;20.87
32827;BMP280;51059;42.058;27.986;2023-08-08T01:37:18;100802.06;;;20.87
32827;BMP280;51059;42.058;27.986;2023-08-08T01:39:46;100801.97;;;20.78
32827;BMP280;51059;42.058;27.986;2023-08-08T01:42:15;100801.16;;;20.78
32827;BMP280;51059;42.058;27.986;2023-08-08T01:44:42;100807.09;;;20.81
32827;BMP280;51059;42.058;27.986;2023-08-08T01:47:08;100807.09;;;20.81
32827;BMP280;51059;42.058;27.986;2023-08-08T01:49:34;100807.94;;;20.85
32827;BMP280;51059;42.058;27.986;2023-08-08T01:51:59;100804.56;;;20.84
32827;BMP280;51059;42.058;27.986;2023-08-08T01:54:26;100809.69;;;20.91
32827;BMP280;51059;42.058;27.986;2023-08-08T01:56:52;100801.28;;;20.97
32827;BMP280;51059;42.058;27.986;2023-08-08T01:59:18;100806.41;;;21.00
32827;BMP280;51059;42.058;27.986;2023-08-08T02:01:44;100818.19;;;20.95
32827;BMP280;51059;42.058;27.986;2023-08-08T02:04:11;100805.53;;;21.03
32827;BMP280;51059;42.058;27.986;2023-08-08T02:06:37;100810.66;;;21.06
32827;BMP280;51059;42.058;27.986;2023-08-08T02:09:03;100815.75;;;21.09
32827;BMP280;51059;42.058;27.986;2023-08-08T02:11:29;100809.88;;;21.17
32827;BMP280;51059;42.058;27.986;2023-08-08T02:13:54;100814.09;;;21.20
32827;BMP280;51059;42.058;27.986;2023-08-08T02:16:20;100809.03;;;21.17
32827;BMP280;51059;42.058;27.986;2023-08-08T02:18:46;100818.31;;;21.15
32827;BMP280;51059;42.058;27.986;2023-08-08T02:21:12;100811.56;;;21.14
32827;BMP280;51059;42.058;27.986;2023-08-08T02:23:38;100820.03;;;21.22
32827;BMP280;51059;42.058;27.986;2023-08-08T02:26:04;100821.75;;;21.23
32827;BMP280;51059;42.058;27.986;2023-08-08T02:28:30;100816.69;;;21.23
32827;BMP280;51059;42.058;27.986;2023-08-08T02:30:56;100819.22;;;21.27
32827;BMP280;51059;42.058;27.986;2023-08-08T02:33:22;100821.78;;;21.29
32827;BMP280;51059;42.058;27.986;2023-08-08T02:35:47;100822.63;;;21.28
32827;BMP280;51059;42.058;27.986;2023-08-08T02:38:14;100819.22;;;21.26
32827;BMP280;51059;42.058;27.986;2023-08-08T02:40:40;100827.69;;;21.28
32827;BMP280;51059;42.058;27.986;2023-08-08T02:43:06;100833.63;;;21.28
32827;BMP280;51059;42.058;27.986;2023-08-08T02:45:32;100834.50;;;21.32
32827;BMP280;51059;42.058;27.986;2023-08-08T02:47:58;100830.28;;;21.33
32827;BMP280;51059;42.058;27.986;2023-08-08T02:50:24;100837.94;;;21.42
32827;BMP280;51059;42.058;27.986;2023-08-08T02:52:50;100837.94;;;21.45
32827;BMP280;51059;42.058;27.986;2023-08-08T02:55:16;100836.28;;;21.53
32827;BMP280;51059;42.058;27.986;2023-08-08T02:57:42;100833.75;;;21.54
32827;BMP280;51059;42.058;27.986;2023-08-08T03:00:08;100833.78;;;21.56
32827;BMP280;51059;42.058;27.986;2023-08-08T03:02:36;100844.75;;;21.58
32827;BMP280;51059;42.058;27.986;2023-08-08T03:05:01;100838.84;;;21.60
32827;BMP280;51059;42.058;27.986;2023-08-08T03:07:27;100833.75;;;21.53
32827;BMP280;51059;42.058;27.986;2023-08-08T03:09:53;100840.63;;;21.70
32827;BMP280;51059;42.058;27.986;2023-08-08T03:12:19;100836.47;;;21.96
32827;BMP280;51059;42.058;27.986;2023-08-08T03:14:46;100832.34;;;22.59
32827;BMP280;51059;42.058;27.986;2023-08-08T03:17:12;100834.03;;;23.09
32827;BMP280;51059;42.058;27.986;2023-08-08T03:19:37;100827.91;;;23.76
32827;BMP280;51059;42.058;27.986;2023-08-08T03:22:04;100834.91;;;24.71
32827;BMP280;51059;42.058;27.986;2023-08-08T03:24:29;100823.25;;;25.32
32827;BMP280;51059;42.058;27.986;2023-08-08T03:26:55;100833.97;;;26.25
32827;BMP280;51059;42.058;27.986;2023-08-08T03:29:21;100824.69;;;26.73
32827;BMP280;51059;42.058;27.986;2023-08-08T03:31:47;100821.81;;;27.37
32827;BMP280;51059;42.058;27.986;2023-08-08T03:34:13;100833.19;;;28.42
32827;BMP280;51059;42.058;27.986;2023-08-08T03:36:40;100834.53;;;28.91
32827;BMP280;51059;42.058;27.986;2023-08-08T03:39:06;100828.56;;;29.82
32827;BMP280;51059;42.058;27.986;2023-08-08T03:41:34;100832.28;;;30.53
32827;BMP280;51059;42.058;27.986;2023-08-08T03:44:00;100834.16;;;31.25
32827;BMP280;51059;42.058;27.986;2023-08-08T03:46:28;100836.97;;;31.88
32827;BMP280;51059;42.058;27.986;2023-08-08T03:48:54;100833.63;;;32.70
32827;BMP280;51059;42.058;27.986;2023-08-08T03:51:20;100837.22;;;33.26
32827;BMP280;51059;42.058;27.986;2023-08-08T03:53:46;100840.22;;;33.37
32827;BMP280;51059;42.058;27.986;2023-08-08T03:56:12;100853.97;;;34.29
32827;BMP280;51059;42.058;27.986;2023-08-08T03:58:38;100852.22;;;34.48
32827;BMP280;51059;42.058;27.986;2023-08-08T04:01:04;100856.81;;;35.43
32827;BMP280;51059;42.058;27.986;2023-08-08T04:03:30;100860.53;;;36.02
32827;BMP280;51059;42.058;27.986;2023-08-08T04:05:55;100855.31;;;37.05
32827;BMP280;51059;42.058;27.986;2023-08-08T04:08:22;100866.88;;;37.44
32827;BMP280;51059;42.058;27.986;2023-08-08T04:10:47;100875.50;;;37.59
32827;BMP280;51059;42.058;27.986;2023-08-08T04:13:14;100878.94;;;38.14
32827;BMP280;51059;42.058;27.986;2023-08-08T04:15:40;100871.44;;;39.12
32827;BMP280;51059;42.058;27.986;2023-08-08T04:18:06;100881.31;;;39.20
32827;BMP280;51059;42.058;27.986;2023-08-08T04:20:33;100883.91;;;39.58
32827;BMP280;51059;42.058;27.986;2023-08-08T04:23:00;100888.38;;;40.05
32827;BMP280;51059;42.058;27.986;2023-08-08T04:25:27;100889.09;;;40.88
32827;BMP280;51059;42.058;27.986;2023-08-08T04:27:53;100892.34;;;41.02
32827;BMP280;51059;42.058;27.986;2023-08-08T04:30:19;100893.72;;;40.73
32827;BMP280;51059;42.058;27.986;2023-08-08T04:32:45;100892.53;;;41.55
32827;BMP280;51059;42.058;27.986;2023-08-08T04:35:12;100888.13;;;41.66
32827;BMP280;51059;42.058;27.986;2023-08-08T04:37:38;100899.16;;;41.49
32827;BMP280;51059;42.058;27.986;2023-08-08T04:40:04;100891.19;;;42.78
32827;BMP280;51059;42.058;27.986;2023-08-08T04:42:30;100898.28;;;42.56
32827;BMP280;51059;42.058;27.986;2023-08-08T04:44:56;100898.78;;;43.41
32827;BMP280;51059;42.058;27.986;2023-08-08T04:47:22;100899.81;;;44.18
32827;BMP280;51059;42.058;27.986;2023-08-08T04:49:48;100911.38;;;43.78
32827;BMP280;51059;42.058;27.986;2023-08-08T04:52:14;100908.69;;;44.26
32827;BMP280;51059;42.058;27.986;2023-08-08T04:54:40;100899.00;;;45.02
32827;BMP280;51059;42.058;27.986;2023-08-08T04:57:06;100904.97;;;44.95
32827;BMP280;51059;42.058;27.986;2023-08-08T04:59:31;100903.56;;;45.09
32827;BMP280;51059;42.058;27.986;2023-08-08T05:01:58;100907.31;;;45.43
32827;BMP280;51059;42.058;27.986;2023-08-08T05:04:23;100909.94;;;45.62
32827;BMP280;51059;42.058;27.986;2023-08-08T05:06:49;100907.16;;;46.08
32827;BMP280;51059;42.058;27.986;2023-08-08T05:09:15;100907.38;;;45.25
32827;BMP280;51059;42.058;27.986;2023-08-08T05:11:41;100900.47;;;44.49
32827;BMP280;51059;42.058;27.986;2023-08-08T05:14:08;100895.16;;;44.40
32827;BMP280;51059;42.058;27.986;2023-08-08T05:16:33;100903.56;;;42.13
32827;BMP280;51059;42.058;27.986;2023-08-08T05:18:59;100907.34;;;40.31
32827;BMP280;51059;42.058;27.986;2023-08-08T05:21:25;100904.28;;;40.02
32827;BMP280;51059;42.058;27.986;2023-08-08T05:23:51;100906.56;;;39.82
32827;BMP280;51059;42.058;27.986;2023-08-08T05:26:17;100906.75;;;39.43
32827;BMP280;51059;42.058;27.986;2023-08-08T05:28:43;100910.41;;;39.03
32827;BMP280;51059;42.058;27.986;2023-08-08T05:31:09;100910.22;;;38.27
32827;BMP280;51059;42.058;27.986;2023-08-08T05:33:36;100909.75;;;39.25
32827;BMP280;51059;42.058;27.986;2023-08-08T05:36:03;100921.09;;;38.86
32827;BMP280;51059;42.058;27.986;2023-08-08T05:38:28;100913.06;;;38.63
32827;BMP280;51059;42.058;27.986;2023-08-08T05:40:54;100924.28;;;37.57
32827;BMP280;51059;42.058;27.986;2023-08-08T05:43:20;100927.66;;;38.00
32827;BMP280;51059;42.058;27.986;2023-08-08T05:45:47;100930.72;;;38.19
32827;BMP280;51059;42.058;27.986;2023-08-08T05:48:13;100938.53;;;37.79
32827;BMP280;51059;42.058;27.986;2023-08-08T05:50:39;100939.47;;;36.92
32827;BMP280;51059;42.058;27.986;2023-08-08T05:53:06;100943.13;;;35.81
32827;BMP280;51059;42.058;27.986;2023-08-08T05:55:41;100942.81;;;35.70
32827;BMP280;51059;42.058;27.986;2023-08-08T05:58:08;100947.63;;;35.77
32827;BMP280;51059;42.058;27.986;2023-08-08T06:00:34;100947.50;;;35.64
32827;BMP280;51059;42.058;27.986;2023-08-08T06:03:01;100957.19;;;35.28
32827;BMP280;51059;42.058;27.986;2023-08-08T06:05:27;100954.81;;;34.89
32827;BMP280;51059;42.058;27.986;2023-08-08T06:07:54;100959.38;;;35.02
32827;BMP280;51059;42.058;27.986;2023-08-08T06:10:23;100964.25;;;34.73
32827;BMP280;51059;42.058;27.986;2023-08-08T06:12:50;100967.03;;;34.33
32827;BMP280;51059;42.058;27.986;2023-08-08T06:15:16;100965.53;;;33.71
32827;BMP280;51059;42.058;27.986;2023-08-08T06:17:42;100966.84;;;33.81
32827;BMP280;51059;42.058;27.986;2023-08-08T06:20:10;100973.00;;;32.98
32827;BMP280;51059;42.058;27.986;2023-08-08T06:22:36;100974.00;;;33.55
32827;BMP280;51059;42.058;27.986;2023-08-08T06:25:02;100972.34;;;33.14
32827;BMP280;51059;42.058;27.986;2023-08-08T06:27:29;100980.25;;;33.90
32827;BMP280;51059;42.058;27.986;2023-08-08T06:29:55;100975.94;;;33.11
32827;BMP280;51059;42.058;27.986;2023-08-08T06:32:21;100973.91;;;33.18
32827;BMP280;51059;42.058;27.986;2023-08-08T06:34:47;100986.19;;;33.13
32827;BMP280;51059;42.058;27.986;2023-08-08T06:37:13;100978.66;;;33.28
32827;BMP280;51059;42.058;27.986;2023-08-08T06:39:39;100993.78;;;32.53
32827;BMP280;51059;42.058;27.986;2023-08-08T06:42:11;100990.03;;;32.39
32827;BMP280;51059;42.058;27.986;2023-08-08T06:44:44;100990.44;;;32.28
32827;BMP280;51059;42.058;27.986;2023-08-08T06:47:11;100987.63;;;32.34
32827;BMP280;51059;42.058;27.986;2023-08-08T06:49:38;100989.53;;;32.52
32827;BMP280;51059;42.058;27.986;2023-08-08T06:52:05;101000.47;;;32.58
32827;BMP280;51059;42.058;27.986;2023-08-08T06:54:32;100999.81;;;32.53
32827;BMP280;51059;42.058;27.986;2023-08-08T06:56:58;101002.88;;;32.18
32827;BMP280;51059;42.058;27.986;2023-08-08T06:59:25;100997.09;;;32.11
32827;BMP280;51059;42.058;27.986;2023-08-08T07:01:52;101005.38;;;31.73
32827;BMP280;51059;42.058;27.986;2023-08-08T07:04:18;101008.91;;;31.95
32827;BMP280;51059;42.058;27.986;2023-08-08T07:06:44;101010.09;;;32.32
32827;BMP280;51059;42.058;27.986;2023-08-08T07:09:13;101018.97;;;32.02
32827;BMP280;51059;42.058;27.986;2023-08-08T07:11:40;101014.19;;;32.38
32827;BMP280;51059;42.058;27.986;2023-08-08T07:14:06;101010.94;;;32.09
32827;BMP280;51059;42.058;27.986;2023-08-08T07:16:32;101006.91;;;32.02
32827;BMP280;51059;42.058;27.986;2023-08-08T07:18:58;101028.25;;;31.83
32827;BMP280;51059;42.058;27.986;2023-08-08T07:21:24;101028.19;;;31.35
32827;BMP280;51059;42.058;27.986;2023-08-08T07:23:51;101030.31;;;32.22
32827;BMP280;51059;42.058;27.986;2023-08-08T07:26:17;101029.09;;;32.31
32827;BMP280;51059;42.058;27.986;2023-08-08T07:28:43;101022.81;;;32.16
32827;BMP280;51059;42.058;27.986;2023-08-08T07:31:08;101017.03;;;32.08
32827;BMP280;51059;42.058;27.986;2023-08-08T07:33:34;101027.09;;;32.15
32827;BMP280;51059;42.058;27.986;2023-08-08T07:36:00;101049.88;;;31.29
32827;BMP280;51059;42.058;27.986;2023-08-08T07:38:26;101045.53;;;32.05
32827;BMP280;51059;42.058;27.986;2023-08-08T07:40:52;101046.13;;;32.13
32827;BMP280;51059;42.058;27.986;2023-08-08T07:43:18;101034.53;;;32.00
32827;BMP280;51059;42.058;27.986;2023-08-08T07:45:46;101040.28;;;31.84
32827;BMP280;51059;42.058;27.986;2023-08-08T07:48:12;101044.41;;;31.39
32827;BMP280;51059;42.058;27.986;2023-08-08T07:50:37;101046.81;;;31.94
32827;BMP280;51059;42.058;27.986;2023-08-08T07:53:03;101051.03;;;31.97
32827;BMP280;51059;42.058;27.986;2023-08-08T07:55:29;101047.25;;;32.06
32827;BMP280;51059;42.058;27.986;2023-08-08T07:57:55;101051.66;;;31.79
32827;BMP280;51059;42.058;27.986;2023-08-08T08:00:21;101051.47;;;32.09
32827;BMP280;51059;42.058;27.986;2023-08-08T08:02:47;101048.03;;;32.08
32827;BMP280;51059;42.058;27.986;2023-08-08T08:05:13;101042.19;;;32.27
32827;BMP280;51059;42.058;27.986;2023-08-08T08:07:39;101045.13;;;31.93
32827;BMP280;51059;42.058;27.986;2023-08-08T08:10:09;101051.25;;;31.67
32827;BMP280;51059;42.058;27.986;2023-08-08T08:12:36;101058.91;;;31.42
32827;BMP280;51059;42.058;27.986;2023-08-08T08:15:03;101053.81;;;31.14
32827;BMP280;51059;42.058;27.986;2023-08-08T08:17:30;101054.31;;;31.78
32827;BMP280;51059;42.058;27.986;2023-08-08T08:19:59;101054.25;;;31.79
32827;BMP280;51059;42.058;27.986;2023-08-08T08:22:25;101061.78;;;31.07
32827;BMP280;51059;42.058;27.986;2023-08-08T08:24:51;101056.75;;;31.02
32827;BMP280;51059;42.058;27.986;2023-08-08T08:27:17;101059.50;;;30.70
32827;BMP280;51059;42.058;27.986;2023-08-08T08:29:44;101064.38;;;30.80
32827;BMP280;51059;42.058;27.986;2023-08-08T08:32:10;101072.34;;;30.11
32827;BMP280;51059;42.058;27.986;2023-08-08T08:34:36;101061.94;;;30.45
32827;BMP280;51059;42.058;27.986;2023-08-08T08:37:03;101066.38;;;29.78
32827;BMP280;51059;42.058;27.986;2023-08-08T08:39:29;101065.47;;;30.10
32827;BMP280;51059;42.058;27.986;2023-08-08T08:41:59;101080.56;;;29.94
32827;BMP280;51059;42.058;27.986;2023-08-08T08:44:34;101075.38;;;29.63
32827;BMP280;51059;42.058;27.986;2023-08-08T08:47:04;101076.56;;;30.13
32827;BMP280;51059;42.058;27.986;2023-08-08T08:49:37;101069.66;;;29.83
32827;BMP280;51059;42.058;27.986;2023-08-08T08:52:04;101074.94;;;29.79
32827;BMP280;51059;42.058;27.986;2023-08-08T08:54:32;101067.03;;;29.17
32827;BMP280;51059;42.058;27.986;2023-08-08T08:56:59;101072.25;;;30.15
32827;BMP280;51059;42.058;27.986;2023-08-08T08:59:26;101067.09;;;29.83
32827;BMP280;51059;42.058;27.986;2023-08-08T09:01:53;101075.91;;;29.03
32827;BMP280;51059;42.058;27.986;2023-08-08T09:04:20;101069.72;;;31.01
32827;BMP280;51059;42.058;27.986;2023-08-08T09:06:48;101065.19;;;31.35
32827;BMP280;51059;42.058;27.986;2023-08-08T09:09:15;101063.81;;;31.25
32827;BMP280;51059;42.058;27.986;2023-08-08T09:11:46;101065.63;;;31.47
32827;BMP280;51059;42.058;27.986;2023-08-08T09:14:21;101062.38;;;31.68
32827;BMP280;51059;42.058;27.986;2023-08-08T09:16:48;101071.22;;;31.86
32827;BMP280;51059;42.058;27.986;2023-08-08T09:19:15;101059.91;;;32.37
32827;BMP280;51059;42.058;27.986;2023-08-08T09:21:43;101071.81;;;32.41
32827;BMP280;51059;42.058;27.986;2023-08-08T09:24:09;101074.81;;;31.30
32827;BMP280;51059;42.058;27.986;2023-08-08T09:26:35;101064.84;;;31.96
32827;BMP280;51059;42.058;27.986;2023-08-08T09:29:02;101072.13;;;31.60
32827;BMP280;51059;42.058;27.986;2023-08-08T09:31:29;101064.81;;;32.67
32827;BMP280;51059;42.058;27.986;2023-08-08T09:33:59;101077.66;;;32.69
32827;BMP280;51059;42.058;27.986;2023-08-08T09:36:25;101084.44;;;31.77
32827;BMP280;51059;42.058;27.986;2023-08-08T09:38:52;101082.69;;;32.03
32827;BMP280;51059;42.058;27.986;2023-08-08T09:41:23;101073.59;;;32.61
32827;BMP280;51059;42.058;27.986;2023-08-08T09:43:52;101072.28;;;32.74
32827;BMP280;51059;42.058;27.986;2023-08-08T09:46:22;101091.50;;;31.72
32827;BMP280;51059;42.058;27.986;2023-08-08T09:48:48;101073.50;;;33.09
32827;BMP280;51059;42.058;27.986;2023-08-08T09:51:16;101077.66;;;31.98
32827;BMP280;51059;42.058;27.986;2023-08-08T09:53:42;101077.84;;;32.64
32827;BMP280;51059;42.058;27.986;2023-08-08T09:56:09;101086.34;;;31.96
32827;BMP280;51059;42.058;27.986;2023-08-08T09:58:37;101085.09;;;32.54
32827;BMP280;51059;42.058;27.986;2023-08-08T10:01:05;101081.09;;;32.70
32827;BMP280;51059;42.058;27.986;2023-08-08T10:03:31;101092.78;;;31.85
32827;BMP280;51059;42.058;27.986;2023-08-08T10:05:57;101101.78;;;31.21
32827;BMP280;51059;42.058;27.986;2023-08-08T10:08:23;101099.78;;;30.74
32827;BMP280;51059;42.058;27.986;2023-08-08T10:10:52;101098.59;;;31.11
32827;BMP280;51059;42.058;27.986;2023-08-08T10:13:27;101099.88;;;30.71
32827;BMP280;51059;42.058;27.986;2023-08-08T10:15:54;101104.34;;;30.01
32827;BMP280;51059;42.058;27.986;2023-08-08T10:18:23;101092.38;;;30.62
32827;BMP280;51059;42.058;27.986;2023-08-08T10:20:51;101089.53;;;30.41
32827;BMP280;51059;42.058;27.986;2023-08-08T10:23:20;101106.63;;;30.13
32827;BMP280;51059;42.058;27.986;2023-08-08T10:25:51;101109.41;;;30.06
32827;BMP280;51059;42.058;27.986;2023-08-08T10:28:20;101113.88;;;29.29
32827;BMP280;51059;42.058;27.986;2023-08-08T10:30:58;101123.75;;;28.26
32827;BMP280;51059;42.058;27.986;2023-08-08T10:33:39;101116.66;;;29.20
32827;BMP280;51059;42.058;27.986;2023-08-08T10:36:13;101119.34;;;28.32
32827;BMP280;51059;42.058;27.986;2023-08-08T10:38:44;101124.69;;;28.21
32827;BMP280;51059;42.058;27.986;2023-08-08T10:41:15;101120.44;;;28.65
32827;BMP280;51059;42.058;27.986;2023-08-08T10:46:43;101119.69;;;28.15
32827;BMP280;51059;42.058;27.986;2023-08-08T10:49:11;101118.97;;;28.52
32827;BMP280;51059;42.058;27.986;2023-08-08T10:51:43;101122.00;;;28.72
32827;BMP280;51059;42.058;27.986;2023-08-08T10:54:19;101115.41;;;28.59
32827;BMP280;51059;42.058;27.986;2023-08-08T10:56:54;101117.75;;;28.69
32827;BMP280;51059;42.058;27.986;2023-08-08T10:59:36;101119.69;;;28.59
32827;BMP280;51059;42.058;27.986;2023-08-08T11:02:04;101113.59;;;29.04
32827;BMP280;51059;42.058;27.986;2023-08-08T11:04:30;101126.03;;;28.84
32827;BMP280;51059;42.058;27.986;2023-08-08T11:06:58;101122.50;;;28.88
32827;BMP280;51059;42.058;27.986;2023-08-08T11:09:24;101134.28;;;28.57
32827;BMP280;51059;42.058;27.986;2023-08-08T11:11:53;101124.16;;;28.92
32827;BMP280;51059;42.058;27.986;2023-08-08T11:14:21;101125.16;;;29.25
32827;BMP280;51059;42.058;27.986;2023-08-08T11:16:49;101122.91;;;29.46
32827;BMP280;51059;42.058;27.986;2023-08-08T11:19:15;101120.59;;;29.36
32827;BMP280;51059;42.058;27.986;2023-08-08T11:21:45;101124.94;;;29.69
32827;BMP280;51059;42.058;27.986;2023-08-08T11:24:12;101128.06;;;29.46
32827;BMP280;51059;42.058;27.986;2023-08-08T11:26:42;101128.41;;;29.68
32827;BMP280;51059;42.058;27.986;2023-08-08T11:29:11;101124.34;;;29.92
32827;BMP280;51059;42.058;27.986;2023-08-08T11:31:37;101121.38;;;29.74
32827;BMP280;51059;42.058;27.986;2023-08-08T11:34:04;101124.22;;;29.64
32827;BMP280;51059;42.058;27.986;2023-08-08T11:36:34;101120.91;;;29.93
32827;BMP280;51059;42.058;27.986;2023-08-08T11:39:02;101124.56;;;29.50
32827;BMP280;51059;42.058;27.986;2023-08-08T11:41:37;101125.16;;;29.94
32827;BMP280;51059;42.058;27.986;2023-08-08T11:44:05;101121.56;;;30.01
32827;BMP280;51059;42.058;27.986;2023-08-08T11:46:31;101129.00;;;29.42
32827;BMP280;51059;42.058;27.986;2023-08-08T11:49:04;101122.78;;;29.52
32827;BMP280;51059;42.058;27.986;2023-08-08T11:51:32;101121.34;;;29.76
32827;BMP280;51059;42.058;27.986;2023-08-08T11:54:01;101115.56;;;29.68
32827;BMP280;51059;42.058;27.986;2023-08-08T11:56:28;101127.47;;;28.97
32827;BMP280;51059;42.058;27.986;2023-08-08T11:58:55;101122.19;;;29.76
32827;BMP280;51059;42.058;27.986;2023-08-08T12:01:24;101124.28;;;29.61
32827;BMP280;51059;42.058;27.986;2023-08-08T12:03:51;101131.81;;;28.07
32827;BMP280;51059;42.058;27.986;2023-08-08T12:06:17;101131.25;;;28.80
32827;BMP280;51059;42.058;27.986;2023-08-08T12:08:44;101127.63;;;28.46
32827;BMP280;51059;42.058;27.986;2023-08-08T12:11:12;101132.28;;;28.28
32827;BMP280;51059;42.058;27.986;2023-08-08T12:13:40;101126.56;;;28.60
32827;BMP280;51059;42.058;27.986;2023-08-08T12:16:08;101127.06;;;27.84
32827;BMP280;51059;42.058;27.986;2023-08-08T12:18:36;101119.78;;;28.53
32827;BMP280;51059;42.058;27.986;2023-08-08T12:21:04;101121.56;;;28.51
32827;BMP280;51059;42.058;27.986;2023-08-08T12:23:31;101131.06;;;28.01
32827;BMP280;51059;42.058;27.986;2023-08-08T12:26:00;101121.69;;;28.00
32827;BMP280;51059;42.058;27.986;2023-08-08T12:28:28;101126.97;;;28.38
32827;BMP280;51059;42.058;27.986;2023-08-08T12:30:54;101132.91;;;27.39
32827;BMP280;51059;42.058;27.986;2023-08-08T12:33:20;101131.09;;;27.47
32827;BMP280;51059;42.058;27.986;2023-08-08T12:35:47;101139.25;;;27.13
32827;BMP280;51059;42.058;27.986;2023-08-08T12:38:13;101136.22;;;27.47
32827;BMP280;51059;42.058;27.986;2023-08-08T12:40:44;101138.16;;;27.32
32827;BMP280;51059;42.058;27.986;2023-08-08T12:43:11;101137.38;;;27.25
32827;BMP280;51059;42.058;27.986;2023-08-08T12:45:45;101134.28;;;27.62
32827;BMP280;51059;42.058;27.986;2023-08-08T12:48:11;101141.09;;;27.64
32827;BMP280;51059;42.058;27.986;2023-08-08T12:50:42;101140.00;;;27.22
32827;BMP280;51059;42.058;27.986;2023-08-08T12:53:08;101143.94;;;27.45
32827;BMP280;51059;42.058;27.986;2023-08-08T12:55:35;101143.81;;;27.54
32827;BMP280;51059;42.058;27.986;2023-08-08T12:58:03;101150.84;;;27.37
32827;BMP280;51059;42.058;27.986;2023-08-08T13:00:33;101149.75;;;27.56
32827;BMP280;51059;42.058;27.986;2023-08-08T13:02:59;101151.59;;;27.47
32827;BMP280;51059;42.058;27.986;2023-08-08T13:05:25;101156.00;;;27.39
32827;BMP280;51059;42.058;27.986;2023-08-08T13:07:51;101141.22;;;27.54
32827;BMP280;51059;42.058;27.986;2023-08-08T13:10:17;101156.81;;;27.39
32827;BMP280;51059;42.058;27.986;2023-08-08T13:12:46;101157.25;;;27.69
32827;BMP280;51059;42.058;27.986;2023-08-08T13:15:13;101154.66;;;27.70
32827;BMP280;51059;42.058;27.986;2023-08-08T13:17:38;101162.69;;;26.84
32827;BMP280;51059;42.058;27.986;2023-08-08T13:20:06;101165.13;;;26.97
32827;BMP280;51059;42.058;27.986;2023-08-08T13:22:33;101163.03;;;27.81
32827;BMP280;51059;42.058;27.986;2023-08-08T13:24:59;101158.66;;;27.32
32827;BMP280;51059;42.058;27.986;2023-08-08T13:27:31;101166.75;;;27.63
32827;BMP280;51059;42.058;27.986;2023-08-08T13:29:59;101153.69;;;28.72
32827;BMP280;51059;42.058;27.986;2023-08-08T13:32:25;101165.91;;;29.03
32827;BMP280;51059;42.058;27.986;2023-08-08T13:34:51;101152.75;;;29.17
32827;BMP280;51059;42.058;27.986;2023-08-08T13:37:16;101157.97;;;29.51
32827;BMP280;51059;42.058;27.986;2023-08-08T13:39:42;101171.91;;;29.02
32827;BMP280;51059;42.058;27.986;2023-08-08T13:42:09;101177.00;;;29.05
32827;BMP280;51059;42.058;27.986;2023-08-08T13:44:34;101177.00;;;28.15
32827;BMP280;51059;42.058;27.986;2023-08-08T13:47:01;101179.00;;;28.46
32827;BMP280;51059;42.058;27.986;2023-08-08T13:49:27;101172.66;;;28.19